createdAt,value
2018-05-06T00:00:16.711Z,20.13
2018-05-06T00:01:16.735Z,20.22
2018-05-06T00:02:16.821Z,20.15
2018-05-06T00:03:16.802Z,20.12
2018-05-06T00:04:16.718Z,20.23
2018-05-06T00:05:16.857Z,20.14
2018-05-06T00:06:16.764Z,20.12
2018-05-06T00:07:16.853Z,20.23
2018-05-06T00:08:16.812Z,20.15
2018-05-06T00:09:16.718Z,20.12
2018-05-06T00:10:16.680Z,20.22
2018-05-06T00:11:16.852Z,20.14
2018-05-06T00:12:16.835Z,20.12
2018-05-06T00:13:17.000Z,20.23
2018-05-06T00:14:16.879Z,20.14
2018-05-06T00:15:17.572Z,20.12
2018-05-06T00:16:16.686Z,20.2
2018-05-06T00:17:16.688Z,20.13
2018-05-06T00:18:16.845Z,20.12
2018-05-06T00:19:16.756Z,20.21
2018-05-06T00:20:16.715Z,20.13
2018-05-06T00:21:16.965Z,20.11
2018-05-06T00:22:16.930Z,20.2
2018-05-06T00:23:16.777Z,20.13
2018-05-06T00:24:16.748Z,20.12
2018-05-06T00:25:16.707Z,20.2
2018-05-06T00:26:16.683Z,20.12
2018-05-06T00:27:16.673Z,20.11
2018-05-06T00:28:16.630Z,20.19
2018-05-06T00:29:16.876Z,20.12
2018-05-06T00:30:16.795Z,20.1
2018-05-06T00:31:16.912Z,20.19
2018-05-06T00:32:16.758Z,20.12
2018-05-06T00:33:16.723Z,20.1
2018-05-06T00:34:16.643Z,20.19
2018-05-06T00:35:16.811Z,20.12
2018-05-06T00:36:16.793Z,20.1
2018-05-06T00:37:16.668Z,20.2
2018-05-06T00:38:16.893Z,20.11
2018-05-06T00:39:16.714Z,20.09
2018-05-06T00:40:16.759Z,20.19
2018-05-06T00:41:16.862Z,20.12
2018-05-06T00:42:16.758Z,20.1
2018-05-06T00:43:16.743Z,20.19
2018-05-06T00:44:16.754Z,20.12
2018-05-06T00:45:16.765Z,20.09
2018-05-06T00:46:17.015Z,20.19
2018-05-06T00:47:16.917Z,20.11
2018-05-06T00:48:16.885Z,20.09
2018-05-06T00:49:16.838Z,20.19
2018-05-06T00:50:16.923Z,20.11
2018-05-06T00:51:16.861Z,20.09
2018-05-06T00:52:16.670Z,20.17
2018-05-06T00:53:16.882Z,20.1
2018-05-06T00:54:16.768Z,20.08
2018-05-06T00:55:16.795Z,20.18
2018-05-06T00:56:16.707Z,20.12
2018-05-06T00:57:16.786Z,20.09
2018-05-06T00:58:16.743Z,20.19
2018-05-06T00:59:16.850Z,20.12
2018-05-06T01:00:16.826Z,20.09
2018-05-06T01:01:16.859Z,20.18
2018-05-06T01:02:16.850Z,20.11
2018-05-06T01:03:16.880Z,20.09
2018-05-06T01:04:16.621Z,20.18
2018-05-06T01:05:16.927Z,20.1
2018-05-06T01:06:16.801Z,20.08
2018-05-06T01:07:16.857Z,20.18
2018-05-06T01:08:16.629Z,20.1
2018-05-06T01:09:16.741Z,20.07
2018-05-06T01:10:16.827Z,20.17
2018-05-06T01:11:16.849Z,20.1
2018-05-06T01:12:16.675Z,20.07
2018-05-06T01:13:16.892Z,20.16
2018-05-06T01:14:16.715Z,20.09
2018-05-06T01:15:16.966Z,20.07
2018-05-06T01:16:16.769Z,20.18
2018-05-06T01:17:16.873Z,20.08
2018-05-06T01:18:16.761Z,20.07
2018-05-06T01:19:16.886Z,20.16
2018-05-06T01:20:16.743Z,20.09
2018-05-06T01:21:16.877Z,20.07
2018-05-06T01:22:16.663Z,20.18
2018-05-06T01:23:16.726Z,20.08
2018-05-06T01:24:17.019Z,20.07
2018-05-06T01:25:16.866Z,20.17
2018-05-06T01:26:16.832Z,20.08
2018-05-06T01:27:16.860Z,20.06
2018-05-06T01:28:16.793Z,20.16
2018-05-06T01:29:16.715Z,20.08
2018-05-06T01:30:16.681Z,20.06
2018-05-06T01:31:16.862Z,20.16
2018-05-06T01:32:16.750Z,20.08
2018-05-06T01:33:16.833Z,20.07
2018-05-06T01:34:16.678Z,20.15
2018-05-06T01:35:16.676Z,20.07
2018-05-06T01:36:16.866Z,20.06
2018-05-06T01:37:16.736Z,20.15
2018-05-06T01:38:16.680Z,20.08
2018-05-06T01:39:16.853Z,20.06
2018-05-06T01:40:16.616Z,20.17
2018-05-06T01:41:16.639Z,20.08
2018-05-06T01:42:16.591Z,20.06
2018-05-06T01:43:16.773Z,20.16
2018-05-06T01:44:16.804Z,20.08
2018-05-06T01:45:16.757Z,20.06
2018-05-06T01:46:16.662Z,20.16
2018-05-06T01:47:16.629Z,20.08
2018-05-06T01:48:16.622Z,20.06
2018-05-06T01:49:16.724Z,20.17
2018-05-06T01:50:16.905Z,20.08
2018-05-06T01:51:16.696Z,20.06
2018-05-06T01:52:16.722Z,20.16
2018-05-06T01:53:16.824Z,20.07
2018-05-06T01:54:16.890Z,20.06
2018-05-06T01:55:16.777Z,20.16
2018-05-06T01:56:16.793Z,20.08
2018-05-06T01:57:16.792Z,20.06
2018-05-06T01:58:16.641Z,20.15
2018-05-06T01:59:16.812Z,20.07
2018-05-06T02:00:16.806Z,20.05
2018-05-06T02:01:16.598Z,20.15
2018-05-06T02:02:16.784Z,20.07
2018-05-06T02:03:17.044Z,20.05
2018-05-06T02:04:16.624Z,20.15
2018-05-06T02:05:16.791Z,20.06
2018-05-06T02:06:16.798Z,20.05
2018-05-06T02:07:16.769Z,20.14
2018-05-06T02:08:16.663Z,20.06
2018-05-06T02:09:16.845Z,20.05
2018-05-06T02:10:16.744Z,20.15
2018-05-06T02:11:16.890Z,20.06
2018-05-06T02:12:16.754Z,20.04
2018-05-06T02:13:16.651Z,20.13
2018-05-06T02:14:16.751Z,20.06
2018-05-06T02:15:16.717Z,20.04
2018-05-06T02:16:16.619Z,20.13
2018-05-06T02:17:16.732Z,20.06
2018-05-06T02:18:16.907Z,20.03
2018-05-06T02:19:16.688Z,20.14
2018-05-06T02:20:16.771Z,20.06
2018-05-06T02:21:16.795Z,20.05
2018-05-06T02:22:17.021Z,20.16
2018-05-06T02:23:16.656Z,20.06
2018-05-06T02:24:16.857Z,20.04
2018-05-06T02:25:16.743Z,20.13
2018-05-06T02:26:16.945Z,20.06
2018-05-06T02:27:16.806Z,20.04
2018-05-06T02:28:16.795Z,20.13
2018-05-06T02:29:16.759Z,20.05
2018-05-06T02:30:17.459Z,20.03
2018-05-06T02:31:16.811Z,20.13
2018-05-06T02:32:16.900Z,20.06
2018-05-06T02:33:16.673Z,20.04
2018-05-06T02:34:16.721Z,20.14
2018-05-06T02:35:16.893Z,20.06
2018-05-06T02:36:16.783Z,20.03
2018-05-06T02:37:16.790Z,20.14
2018-05-06T02:38:16.775Z,20.06
2018-05-06T02:39:16.619Z,20.03
2018-05-06T02:40:16.791Z,20.12
2018-05-06T02:41:16.578Z,20.05
2018-05-06T02:42:16.903Z,20.03
2018-05-06T02:43:16.782Z,20.12
2018-05-06T02:44:16.818Z,20.06
2018-05-06T02:45:16.649Z,20.02
2018-05-06T02:46:16.664Z,20.12
2018-05-06T02:47:16.770Z,20.05
2018-05-06T02:48:16.878Z,20.03
2018-05-06T02:49:16.763Z,20.12
2018-05-06T02:50:16.723Z,20.05
2018-05-06T02:51:16.661Z,20.02
2018-05-06T02:52:16.671Z,20.12
2018-05-06T02:53:16.740Z,20.04
2018-05-06T02:54:16.780Z,20.02
2018-05-06T02:55:16.695Z,20.12
2018-05-06T02:56:16.596Z,20.04
2018-05-06T02:57:16.755Z,20.02
2018-05-06T02:58:16.681Z,20.12
2018-05-06T02:59:16.580Z,20.04
2018-05-06T03:00:16.949Z,20.01
2018-05-06T03:01:16.835Z,20.11
2018-05-06T03:02:16.913Z,20.04
2018-05-06T03:03:16.770Z,20.01
2018-05-06T03:04:16.808Z,20.1
2018-05-06T03:05:16.768Z,20.03
2018-05-06T03:06:16.844Z,20.01
2018-05-06T03:07:16.708Z,20.12
2018-05-06T03:08:16.614Z,20.04
2018-05-06T03:09:16.860Z,20.01
2018-05-06T03:10:16.653Z,20.11
2018-05-06T03:11:16.808Z,20.03
2018-05-06T03:12:16.629Z,20.01
2018-05-06T03:13:16.823Z,20.12
2018-05-06T03:14:16.732Z,20.03
2018-05-06T03:15:16.897Z,20.01
2018-05-06T03:16:16.824Z,20.12
2018-05-06T03:17:16.674Z,20.04
2018-05-06T03:18:16.809Z,20.01
2018-05-06T03:19:16.796Z,20.1
2018-05-06T03:20:16.704Z,20.02
2018-05-06T03:21:16.682Z,20
2018-05-06T03:22:16.761Z,20.11
2018-05-06T03:23:16.724Z,20.03
2018-05-06T03:24:16.817Z,20
2018-05-06T03:25:16.794Z,20.12
2018-05-06T03:26:16.661Z,20.02
2018-05-06T03:27:16.811Z,20
2018-05-06T03:28:16.550Z,20.11
2018-05-06T03:29:16.743Z,20.02
2018-05-06T03:30:16.711Z,20
2018-05-06T03:31:16.803Z,20.09
2018-05-06T03:32:16.797Z,20.01
2018-05-06T03:33:16.772Z,20
2018-05-06T03:34:16.693Z,20.1
2018-05-06T03:35:16.842Z,20.01
2018-05-06T03:36:16.579Z,20
2018-05-06T03:37:16.678Z,20.11
2018-05-06T03:38:16.771Z,20.02
2018-05-06T03:39:16.662Z,20
2018-05-06T03:40:16.635Z,20.1
2018-05-06T03:41:16.623Z,20.01
2018-05-06T03:42:16.909Z,20
2018-05-06T03:43:16.741Z,20.09
2018-05-06T03:44:16.698Z,20
2018-05-06T03:45:16.720Z,19.99
2018-05-06T03:46:16.649Z,20.09
2018-05-06T03:47:16.739Z,20
2018-05-06T03:48:16.719Z,20
2018-05-06T03:49:16.833Z,20.09
2018-05-06T03:50:16.789Z,20.01
2018-05-06T03:51:16.625Z,20
2018-05-06T03:52:16.881Z,20.09
2018-05-06T03:53:16.720Z,20.01
2018-05-06T03:54:16.692Z,20
2018-05-06T03:55:16.817Z,20.09
2018-05-06T03:56:16.842Z,20.01
2018-05-06T03:57:16.807Z,20
2018-05-06T03:58:16.797Z,20.07
2018-05-06T03:59:16.675Z,20
2018-05-06T04:00:16.784Z,19.99
2018-05-06T04:01:16.711Z,20.09
2018-05-06T04:02:16.791Z,20
2018-05-06T04:03:16.826Z,19.99
2018-05-06T04:04:16.569Z,20.09
2018-05-06T04:05:16.793Z,20
2018-05-06T04:06:16.785Z,19.99
2018-05-06T04:07:16.598Z,20.06
2018-05-06T04:08:16.802Z,20
2018-05-06T04:09:16.611Z,19.98
2018-05-06T04:10:16.836Z,20.07
2018-05-06T04:11:16.737Z,20
2018-05-06T04:12:16.623Z,19.98
2018-05-06T04:13:16.822Z,20.08
2018-05-06T04:14:16.721Z,20
2018-05-06T04:15:16.646Z,19.98
2018-05-06T04:16:16.873Z,20.06
2018-05-06T04:17:16.670Z,19.99
2018-05-06T04:18:16.722Z,19.97
2018-05-06T04:19:16.710Z,20.07
2018-05-06T04:20:16.685Z,20
2018-05-06T04:21:17.136Z,19.98
2018-05-06T04:22:16.580Z,20.07
2018-05-06T04:23:16.739Z,19.99
2018-05-06T04:24:16.797Z,19.97
2018-05-06T04:25:16.812Z,20.07
2018-05-06T04:26:16.879Z,19.99
2018-05-06T04:27:16.829Z,19.98
2018-05-06T04:28:16.602Z,20.06
2018-05-06T04:29:16.690Z,19.98
2018-05-06T04:30:16.601Z,19.97
2018-05-06T04:31:16.610Z,20.06
2018-05-06T04:32:16.822Z,19.99
2018-05-06T04:33:16.828Z,19.97
2018-05-06T04:34:16.831Z,20.06
2018-05-06T04:35:16.798Z,19.99
2018-05-06T04:36:16.812Z,19.96
2018-05-06T04:37:16.835Z,20.06
2018-05-06T04:38:16.800Z,19.99
2018-05-06T04:39:16.808Z,19.97
2018-05-06T04:40:16.532Z,20.06
2018-05-06T04:41:16.757Z,19.98
2018-05-06T04:42:16.817Z,19.96
2018-05-06T04:43:16.776Z,20.05
2018-05-06T04:44:17.170Z,19.98
2018-05-06T04:45:16.785Z,19.96
2018-05-06T04:46:16.752Z,20.06
2018-05-06T04:47:16.854Z,19.98
2018-05-06T04:48:16.605Z,19.97
2018-05-06T04:49:16.704Z,20.07
2018-05-06T04:50:16.599Z,19.98
2018-05-06T04:51:16.744Z,19.96
2018-05-06T04:52:16.557Z,20.06
2018-05-06T04:53:16.614Z,19.99
2018-05-06T04:54:16.716Z,19.96
2018-05-06T04:55:16.602Z,20.05
2018-05-06T04:56:16.853Z,19.98
2018-05-06T04:57:16.756Z,19.96
2018-05-06T04:58:16.531Z,20.06
2018-05-06T04:59:16.576Z,19.98
2018-05-06T05:00:16.625Z,19.97
2018-05-06T05:01:16.682Z,20.06
2018-05-06T05:02:16.744Z,19.99
2018-05-06T05:03:16.760Z,19.97
2018-05-06T05:04:16.823Z,20.06
2018-05-06T05:05:16.688Z,19.98
2018-05-06T05:06:16.575Z,19.96
2018-05-06T05:07:16.696Z,20.05
2018-05-06T05:08:16.757Z,19.97
2018-05-06T05:09:16.673Z,19.96
2018-05-06T05:10:16.541Z,20.05
2018-05-06T05:11:16.635Z,19.98
2018-05-06T05:12:16.730Z,19.96
2018-05-06T05:13:16.677Z,20.06
2018-05-06T05:14:16.568Z,19.97
2018-05-06T05:15:16.764Z,19.96
2018-05-06T05:16:16.552Z,20.06
2018-05-06T05:17:16.560Z,19.98
2018-05-06T05:18:16.613Z,19.96
2018-05-06T05:19:16.778Z,20.06
2018-05-06T05:20:16.786Z,19.98
2018-05-06T05:21:16.633Z,19.96
2018-05-06T05:22:16.710Z,20.06
2018-05-06T05:23:16.780Z,19.98
2018-05-06T05:24:16.661Z,19.96
2018-05-06T05:25:16.847Z,20.06
2018-05-06T05:26:16.584Z,19.98
2018-05-06T05:27:16.811Z,19.96
2018-05-06T05:28:16.756Z,20.05
2018-05-06T05:29:16.687Z,19.98
2018-05-06T05:30:16.644Z,19.96
2018-05-06T05:31:16.785Z,20.07
2018-05-06T05:32:16.696Z,19.98
2018-05-06T05:33:16.734Z,19.95
2018-05-06T05:34:16.583Z,20.06
2018-05-06T05:35:16.664Z,19.98
2018-05-06T05:36:16.820Z,19.95
2018-05-06T05:37:16.858Z,20.05
2018-05-06T05:38:16.749Z,19.98
2018-05-06T05:39:16.802Z,19.96
2018-05-06T05:40:16.759Z,20.06
2018-05-06T05:41:16.778Z,19.98
2018-05-06T05:42:16.794Z,19.96
2018-05-06T05:43:16.579Z,20.06
2018-05-06T05:44:16.774Z,19.98
2018-05-06T05:45:16.698Z,19.96
2018-05-06T05:46:16.786Z,20.06
2018-05-06T05:47:16.766Z,19.98
2018-05-06T05:48:16.609Z,19.95
2018-05-06T05:49:16.603Z,20.06
2018-05-06T05:50:16.780Z,19.98
2018-05-06T05:51:16.713Z,19.96
2018-05-06T05:52:16.576Z,20.06
2018-05-06T05:53:16.773Z,19.98
2018-05-06T05:54:16.649Z,19.96
2018-05-06T05:55:16.748Z,20.06
2018-05-06T05:56:16.686Z,19.98
2018-05-06T05:57:16.722Z,19.96
2018-05-06T05:58:16.611Z,20.06
2018-05-06T05:59:16.601Z,19.98
2018-05-06T06:00:16.630Z,19.96
2018-05-06T06:01:16.602Z,20.06
2018-05-06T06:02:16.612Z,19.99
2018-05-06T06:03:16.594Z,19.96
2018-05-06T06:04:16.697Z,20.06
2018-05-06T06:05:16.725Z,19.99
2018-05-06T06:06:16.579Z,19.96
2018-05-06T06:07:16.806Z,20.06
2018-05-06T06:08:16.681Z,20
2018-05-06T06:09:16.565Z,19.97
2018-05-06T06:10:21.596Z,20.06
2018-05-06T06:11:16.592Z,19.99
2018-05-06T06:12:16.801Z,19.97
2018-05-06T06:13:16.721Z,20.06
2018-05-06T06:14:16.718Z,19.99
2018-05-06T06:15:16.626Z,19.97
2018-05-06T06:16:16.650Z,20.06
2018-05-06T06:17:16.527Z,19.99
2018-05-06T06:18:17.024Z,19.97
2018-05-06T06:19:16.761Z,20.07
2018-05-06T06:20:16.695Z,20
2018-05-06T06:21:16.718Z,19.97
2018-05-06T06:22:16.551Z,20.07
2018-05-06T06:23:16.552Z,20
2018-05-06T06:24:16.508Z,19.98
2018-05-06T06:25:16.612Z,20.07
2018-05-06T06:26:16.755Z,20
2018-05-06T06:27:16.557Z,19.98
2018-05-06T06:28:16.716Z,20.07
2018-05-06T06:29:16.824Z,20
2018-05-06T06:30:16.560Z,19.98
2018-05-06T06:31:16.637Z,20.06
2018-05-06T06:32:16.799Z,19.99
2018-05-06T06:33:16.591Z,19.97
2018-05-06T06:34:16.613Z,20.06
2018-05-06T06:35:16.751Z,19.99
2018-05-06T06:36:16.627Z,19.97
2018-05-06T06:37:16.897Z,20.06
2018-05-06T06:38:17.273Z,19.99
2018-05-06T06:39:16.562Z,19.98
2018-05-06T06:40:16.720Z,20.06
2018-05-06T06:41:16.547Z,19.99
2018-05-06T06:42:16.742Z,19.97
2018-05-06T06:43:16.798Z,20.06
2018-05-06T06:44:16.804Z,19.99
2018-05-06T06:45:16.576Z,19.97
2018-05-06T06:46:16.778Z,20.07
2018-05-06T06:47:16.673Z,19.99
2018-05-06T06:48:16.646Z,19.97
2018-05-06T06:49:16.568Z,20.06
2018-05-06T06:50:16.643Z,19.99
2018-05-06T06:51:16.760Z,19.97
2018-05-06T06:52:16.682Z,20.06
2018-05-06T06:53:16.552Z,19.98
2018-05-06T06:54:16.632Z,19.97
2018-05-06T06:55:16.599Z,20.07
2018-05-06T06:56:16.801Z,19.99
2018-05-06T06:57:16.614Z,19.97
2018-05-06T06:58:16.761Z,20.07
2018-05-06T06:59:16.591Z,19.99
2018-05-06T07:00:16.643Z,19.97
2018-05-06T07:01:16.609Z,20.06
2018-05-06T07:02:16.810Z,19.99
2018-05-06T07:03:16.605Z,19.97
2018-05-06T07:04:16.478Z,20.07
2018-05-06T07:05:16.693Z,19.99
2018-05-06T07:06:16.597Z,19.97
2018-05-06T07:07:16.705Z,20.08
2018-05-06T07:08:16.543Z,20
2018-05-06T07:09:16.521Z,19.97
2018-05-06T07:10:16.714Z,20.06
2018-05-06T07:11:17.133Z,19.99
2018-05-06T07:12:16.672Z,19.97
2018-05-06T07:13:16.595Z,20.06
2018-05-06T07:14:16.544Z,20
2018-05-06T07:15:16.797Z,19.97
2018-05-06T07:16:16.626Z,20.06
2018-05-06T07:17:16.532Z,19.99
2018-05-06T07:18:16.717Z,19.97
2018-05-06T07:19:16.970Z,20.07
2018-05-06T07:20:16.526Z,19.99
2018-05-06T07:21:16.724Z,19.97
2018-05-06T07:22:16.566Z,20.06
2018-05-06T07:23:16.624Z,19.98
2018-05-06T07:24:16.780Z,19.97
2018-05-06T07:25:16.624Z,20.07
2018-05-06T07:26:16.582Z,19.99
2018-05-06T07:27:16.730Z,19.97
2018-05-06T07:28:16.776Z,20.06
2018-05-06T07:29:16.626Z,19.99
2018-05-06T07:30:16.655Z,19.97
2018-05-06T07:31:16.744Z,20.06
2018-05-06T07:32:16.628Z,19.99
2018-05-06T07:33:16.720Z,19.97
2018-05-06T07:34:16.877Z,20.06
2018-05-06T07:35:16.520Z,19.99
2018-05-06T07:36:16.715Z,19.97
2018-05-06T07:37:16.900Z,20.06
2018-05-06T07:38:16.742Z,19.98
2018-05-06T07:39:16.767Z,19.96
2018-05-06T07:40:16.727Z,20.06
2018-05-06T07:41:16.750Z,19.99
2018-05-06T07:42:16.618Z,19.96
2018-05-06T07:43:16.557Z,20.06
2018-05-06T07:44:16.668Z,20
2018-05-06T07:45:16.790Z,19.96
2018-05-06T07:46:16.771Z,20.07
2018-05-06T07:47:16.747Z,19.99
2018-05-06T07:48:16.559Z,19.96
2018-05-06T07:49:16.779Z,20.06
2018-05-06T07:50:16.745Z,19.98
2018-05-06T07:51:16.752Z,19.96
2018-05-06T07:52:16.752Z,20.06
2018-05-06T07:53:16.600Z,19.99
2018-05-06T07:54:16.661Z,19.96
2018-05-06T07:55:16.551Z,20.06
2018-05-06T07:56:16.596Z,19.99
2018-05-06T07:57:16.738Z,19.97
2018-05-06T07:58:16.501Z,20.07
2018-05-06T07:59:16.485Z,19.99
2018-05-06T08:00:16.638Z,19.96
2018-05-06T08:01:16.559Z,20.06
2018-05-06T08:02:16.719Z,19.98
2018-05-06T08:03:16.579Z,19.96
2018-05-06T08:04:16.525Z,20.06
2018-05-06T08:05:16.731Z,19.98
2018-05-06T08:06:16.758Z,19.96
2018-05-06T08:07:16.540Z,20.06
2018-05-06T08:08:16.656Z,19.98
2018-05-06T08:09:16.745Z,19.96
2018-05-06T08:10:16.622Z,20.07
2018-05-06T08:11:16.518Z,19.99
2018-05-06T08:12:16.696Z,19.97
2018-05-06T08:13:16.494Z,20.05
2018-05-06T08:14:16.517Z,19.98
2018-05-06T08:15:16.676Z,20
2018-05-06T08:16:17.034Z,20.08
2018-05-06T08:17:16.707Z,20.05
2018-05-06T08:18:16.803Z,20.05
2018-05-06T08:19:16.682Z,20.16
2018-05-06T08:20:16.553Z,20.11
2018-05-06T08:21:16.496Z,20.12
2018-05-06T08:22:16.727Z,20.2
2018-05-06T08:23:16.784Z,20.18
2018-05-06T08:24:16.745Z,20.16
2018-05-06T08:25:16.749Z,20.21
2018-05-06T08:26:16.634Z,20.18
2018-05-06T08:27:16.754Z,20.21
2018-05-06T08:28:16.591Z,20.32
2018-05-06T08:29:16.476Z,20.23
2018-05-06T08:30:16.671Z,20.24
2018-05-06T08:31:16.676Z,20.3
2018-05-06T08:32:16.876Z,20.28
2018-05-06T08:33:16.572Z,20.28
2018-05-06T08:34:16.555Z,20.35
2018-05-06T08:35:16.750Z,20.3
2018-05-06T08:36:16.614Z,20.31
2018-05-06T08:37:16.656Z,20.33
2018-05-06T08:38:16.564Z,20.28
2018-05-06T08:39:16.718Z,20.3
2018-05-06T08:40:16.784Z,20.4
2018-05-06T08:41:16.737Z,20.33
2018-05-06T08:42:16.601Z,20.32
2018-05-06T08:43:16.851Z,20.42
2018-05-06T08:44:16.754Z,20.35
2018-05-06T08:45:16.680Z,20.35
2018-05-06T08:46:17.186Z,20.42
2018-05-06T08:47:16.730Z,20.36
2018-05-06T08:48:16.718Z,20.37
2018-05-06T08:49:16.768Z,20.45
2018-05-06T08:50:16.797Z,20.39
2018-05-06T08:51:16.723Z,20.37
2018-05-06T08:52:16.667Z,20.47
2018-05-06T08:53:16.666Z,20.39
2018-05-06T08:54:16.663Z,20.39
2018-05-06T08:55:16.699Z,20.49
2018-05-06T08:56:21.925Z,20.41
2018-05-06T08:57:17.685Z,20.4
2018-05-06T08:58:16.729Z,20.52
2018-05-06T08:59:16.677Z,20.46
2018-05-06T09:00:16.657Z,20.43
2018-05-06T09:01:16.719Z,20.54
2018-05-06T09:02:16.504Z,20.46
2018-05-06T09:03:16.581Z,20.45
2018-05-06T09:04:16.626Z,20.53
2018-05-06T09:05:16.603Z,20.47
2018-05-06T09:06:16.682Z,20.44
2018-05-06T09:07:16.697Z,20.53
2018-05-06T09:08:16.723Z,20.47
2018-05-06T09:09:16.468Z,20.45
2018-05-06T09:10:16.714Z,20.53
2018-05-06T09:11:16.489Z,20.48
2018-05-06T09:12:16.699Z,20.46
2018-05-06T09:13:16.618Z,20.57
2018-05-06T09:14:16.617Z,20.48
2018-05-06T09:15:16.726Z,20.48
2018-05-06T09:16:16.604Z,20.57
2018-05-06T09:17:16.849Z,20.48
2018-05-06T09:18:16.613Z,20.47
2018-05-06T09:19:16.544Z,20.56
2018-05-06T09:20:16.687Z,20.5
2018-05-06T09:21:16.683Z,20.49
2018-05-06T09:22:16.483Z,20.58
2018-05-06T09:23:16.758Z,20.52
2018-05-06T09:24:16.608Z,20.56
2018-05-06T09:25:17.006Z,20.65
2018-05-06T09:26:16.560Z,20.52
2018-05-06T09:27:16.543Z,20.49
2018-05-06T09:28:16.743Z,20.59
2018-05-06T09:29:16.631Z,20.48
2018-05-06T09:30:16.598Z,20.47
2018-05-06T09:31:16.620Z,20.55
2018-05-06T09:32:17.112Z,20.48
2018-05-06T09:33:16.737Z,20.47
2018-05-06T09:34:16.415Z,20.53
2018-05-06T09:35:16.761Z,20.47
2018-05-06T09:36:16.632Z,20.46
2018-05-06T09:37:16.716Z,20.54
2018-05-06T09:38:16.635Z,20.47
2018-05-06T09:39:16.609Z,20.44
2018-05-06T09:40:16.471Z,20.52
2018-05-06T09:41:16.827Z,20.45
2018-05-06T09:42:16.737Z,20.41
2018-05-06T09:43:16.633Z,20.51
2018-05-06T09:44:16.773Z,20.42
2018-05-06T09:45:16.648Z,20.41
2018-05-06T09:46:16.496Z,20.47
2018-05-06T09:47:16.717Z,20.41
2018-05-06T09:48:16.611Z,20.43
2018-05-06T09:49:16.586Z,20.5
2018-05-06T09:50:16.510Z,20.45
2018-05-06T09:51:16.616Z,20.43
2018-05-06T09:52:16.775Z,20.55
2018-05-06T09:53:16.770Z,20.47
2018-05-06T09:54:16.686Z,20.46
2018-05-06T09:55:16.509Z,20.55
2018-05-06T09:56:16.617Z,20.49
2018-05-06T09:57:16.508Z,20.49
2018-05-06T09:58:16.460Z,20.6
2018-05-06T09:59:16.592Z,20.53
2018-05-06T10:00:16.514Z,20.5
2018-05-06T10:01:16.743Z,20.59
2018-05-06T10:02:16.643Z,20.53
2018-05-06T10:03:16.666Z,20.51
2018-05-06T10:04:16.619Z,20.6
2018-05-06T10:05:16.763Z,20.53
2018-05-06T10:06:16.575Z,20.52
2018-05-06T10:07:16.631Z,20.6
2018-05-06T10:08:17.264Z,20.53
2018-05-06T10:09:16.675Z,20.52
2018-05-06T10:10:16.607Z,20.58
2018-05-06T10:11:16.826Z,20.53
2018-05-06T10:12:16.611Z,20.52
2018-05-06T10:13:16.826Z,20.61
2018-05-06T10:14:16.811Z,20.57
2018-05-06T10:15:16.665Z,20.55
2018-05-06T10:16:16.505Z,20.63
2018-05-06T10:17:16.730Z,20.58
2018-05-06T10:18:16.645Z,20.56
2018-05-06T10:19:16.510Z,20.65
2018-05-06T10:20:16.752Z,20.59
2018-05-06T10:21:16.623Z,20.58
2018-05-06T10:22:16.971Z,20.67
2018-05-06T10:23:16.724Z,20.61
2018-05-06T10:24:16.552Z,20.59
2018-05-06T10:25:16.602Z,20.67
2018-05-06T10:26:17.110Z,20.62
2018-05-06T10:27:16.708Z,20.62
2018-05-06T10:28:16.586Z,20.69
2018-05-06T10:29:16.750Z,20.66
2018-05-06T10:30:16.564Z,20.62
2018-05-06T10:31:16.584Z,20.72
2018-05-06T10:32:16.539Z,20.65
2018-05-06T10:33:16.547Z,20.63
2018-05-06T10:34:16.649Z,20.69
2018-05-06T10:35:16.720Z,20.64
2018-05-06T10:36:16.686Z,20.62
2018-05-06T10:37:16.541Z,20.7
2018-05-06T10:38:16.846Z,20.64
2018-05-06T10:39:16.546Z,20.62
2018-05-06T10:40:16.574Z,20.71
2018-05-06T10:41:16.844Z,20.64
2018-05-06T10:42:16.986Z,20.64
2018-05-06T10:43:16.896Z,20.73
2018-05-06T10:44:17.325Z,20.67
2018-05-06T10:45:16.783Z,20.64
2018-05-06T10:46:16.503Z,20.75
2018-05-06T10:47:16.720Z,20.71
2018-05-06T10:48:16.686Z,20.68
2018-05-06T10:49:17.679Z,20.77
2018-05-06T10:50:20.527Z,20.66
2018-05-06T10:51:16.636Z,20.7
2018-05-06T10:52:16.441Z,20.8
2018-05-06T10:53:16.676Z,20.73
2018-05-06T10:54:16.818Z,20.71
2018-05-06T10:55:16.590Z,20.79
2018-05-06T10:56:16.762Z,20.72
2018-05-06T10:57:16.601Z,20.71
2018-05-06T10:58:16.691Z,20.82
2018-05-06T10:59:16.686Z,20.73
2018-05-06T11:00:16.742Z,20.71
2018-05-06T11:01:16.461Z,20.78
2018-05-06T11:02:16.805Z,20.71
2018-05-06T11:03:16.689Z,20.69
2018-05-06T11:04:16.755Z,20.8
2018-05-06T11:05:16.837Z,20.71
2018-05-06T11:06:16.579Z,20.71
2018-05-06T11:07:16.599Z,20.82
2018-05-06T11:08:16.753Z,20.74
2018-05-06T11:09:16.577Z,20.72
2018-05-06T11:10:17.098Z,20.81
2018-05-06T11:11:16.537Z,20.76
2018-05-06T11:12:16.571Z,20.73
2018-05-06T11:13:16.719Z,20.83
2018-05-06T11:14:16.611Z,20.72
2018-05-06T11:15:16.648Z,20.71
2018-05-06T11:16:16.459Z,20.81
2018-05-06T11:17:16.627Z,20.72
2018-05-06T11:18:16.657Z,20.7
2018-05-06T11:19:16.613Z,20.78
2018-05-06T11:20:18.642Z,20.69
2018-05-06T11:21:16.464Z,20.66
2018-05-06T11:22:16.472Z,20.73
2018-05-06T11:23:16.811Z,20.68
2018-05-06T11:24:16.647Z,20.65
2018-05-06T11:25:16.476Z,20.71
2018-05-06T11:26:16.997Z,20.65
2018-05-06T11:27:16.599Z,20.63
2018-05-06T11:28:16.468Z,20.71
2018-05-06T11:29:16.696Z,20.64
2018-05-06T11:30:16.473Z,20.62
2018-05-06T11:31:16.401Z,20.7
2018-05-06T11:32:16.651Z,20.63
2018-05-06T11:33:16.681Z,20.61
2018-05-06T11:34:16.620Z,20.71
2018-05-06T11:35:16.564Z,20.65
2018-05-06T11:36:16.559Z,20.59
2018-05-06T11:37:16.451Z,20.71
2018-05-06T11:38:16.589Z,20.61
2018-05-06T11:39:16.506Z,20.59
2018-05-06T11:40:16.675Z,20.65
2018-05-06T11:41:16.629Z,20.59
2018-05-06T11:42:16.509Z,20.57
2018-05-06T11:43:16.751Z,20.67
2018-05-06T11:44:16.649Z,20.59
2018-05-06T11:45:16.694Z,20.56
2018-05-06T11:46:16.462Z,20.65
2018-05-06T11:47:16.541Z,20.56
2018-05-06T11:48:16.461Z,20.53
2018-05-06T11:49:16.610Z,20.61
2018-05-06T11:50:16.599Z,20.54
2018-05-06T11:51:16.527Z,20.53
2018-05-06T11:52:16.690Z,20.6
2018-05-06T11:53:16.511Z,20.55
2018-05-06T11:54:16.680Z,20.53
2018-05-06T11:55:16.458Z,20.59
2018-05-06T11:56:17.131Z,20.53
2018-05-06T11:57:16.512Z,20.51
2018-05-06T11:58:17.249Z,20.59
2018-05-06T11:59:16.526Z,20.53
2018-05-06T12:00:16.589Z,20.49
2018-05-06T12:01:16.591Z,20.6
2018-05-06T12:02:17.256Z,20.5
2018-05-06T12:03:16.638Z,20.47
2018-05-06T12:04:16.409Z,20.59
2018-05-06T12:05:16.637Z,20.5
2018-05-06T12:06:16.549Z,20.48
2018-05-06T12:07:16.625Z,20.59
2018-05-06T12:08:16.568Z,20.5
2018-05-06T12:09:16.532Z,20.47
2018-05-06T12:10:16.606Z,20.58
2018-05-06T12:11:16.762Z,20.49
2018-05-06T12:12:16.546Z,20.45
2018-05-06T12:13:16.628Z,20.53
2018-05-06T12:14:16.596Z,20.47
2018-05-06T12:15:16.584Z,20.45
2018-05-06T12:16:16.435Z,20.54
2018-05-06T12:17:16.498Z,20.47
2018-05-06T12:18:16.505Z,20.44
2018-05-06T12:19:16.593Z,20.54
2018-05-06T12:20:16.656Z,20.46
2018-05-06T12:21:16.536Z,20.43
2018-05-06T12:22:16.448Z,20.55
2018-05-06T12:23:16.554Z,20.46
2018-05-06T12:24:16.679Z,20.43
2018-05-06T12:25:16.530Z,20.53
2018-05-06T12:26:16.463Z,20.45
2018-05-06T12:27:16.621Z,20.42
2018-05-06T12:28:16.469Z,20.53
2018-05-06T12:29:16.445Z,20.45
2018-05-06T12:30:16.592Z,20.42
2018-05-06T12:31:16.482Z,20.53
2018-05-06T12:32:16.450Z,20.44
2018-05-06T12:33:16.473Z,20.41
2018-05-06T12:34:16.496Z,20.53
2018-05-06T12:35:16.523Z,20.44
2018-05-06T12:36:16.470Z,20.41
2018-05-06T12:37:16.640Z,20.5
2018-05-06T12:38:16.441Z,20.42
2018-05-06T12:39:16.603Z,20.41
2018-05-06T12:40:16.430Z,20.51
2018-05-06T12:41:16.436Z,20.41
2018-05-06T12:42:16.668Z,20.4
2018-05-06T12:43:17.394Z,20.51
2018-05-06T12:44:16.584Z,20.42
2018-05-06T12:45:16.691Z,20.4
2018-05-06T12:46:16.517Z,20.51
2018-05-06T12:47:16.498Z,20.41
2018-05-06T12:48:16.505Z,20.39
2018-05-06T12:49:16.680Z,20.5
2018-05-06T12:50:16.727Z,20.41
2018-05-06T12:51:16.532Z,20.38
2018-05-06T12:52:16.525Z,20.5
2018-05-06T12:53:16.729Z,20.41
2018-05-06T12:54:16.889Z,20.38
2018-05-06T12:55:16.925Z,20.44
2018-05-06T12:56:16.707Z,20.41
2018-05-06T12:57:16.552Z,20.44